Time;durP1;ratioP1;P1;durP2;ratioP2;P2;SDS_P1;SDS_P2;PMS_P1;PMS_P2;Temp;Humidity;BMP_temperature;BMP_pressure;BME280_temperature;BME280_humidity;BME280_pressure;Samples;Min_cycle;Max_cycle;Signal;HPM_P1;HPM_P2
2021/03/02 00:04:59;;;;;;;;;;;1.50;99.90;;;;;;12958973;22;19943;-89
2021/03/02 00:10:04;;;;;;;;;;;1.30;99.90;;;;;;12986902;22;19923;-89
2021/03/02 00:15:12;;;;;;;;;;;1.20;99.90;;;;;;12959821;22;19946;-89
2021/03/02 00:20:15;;;;;;;;;;;1.20;99.90;;;;;;12958932;22;19931;-89
2021/03/02 00:25:16;;;;;;;;;;;1.10;99.90;;;;;;12959018;22;20336;-89
2021/03/02 00:30:20;;;;;;;;;;;0.90;99.90;;;;;;12960491;22;19990;-89
2021/03/02 00:35:27;;;;;;;;;;;0.70;99.90;;;;;;12959568;22;19920;-89
2021/03/02 00:40:28;;;;;;;;;;;0.90;99.90;;;;;;12959544;22;20357;-89
2021/03/02 00:45:30;;;;;;;;;;;0.80;99.90;;;;;;12934436;22;19977;-89
2021/03/02 00:50:31;;;;;;;;;;;0.80;99.90;;;;;;12934699;22;19923;-89
2021/03/02 00:55:32;;;;;;;;;;;0.80;99.90;;;;;;12960446;22;19924;-89
2021/03/02 01:00:34;;;;;;;;;;;0.70;99.90;;;;;;12963584;22;19969;-89
2021/03/02 01:05:35;;;;;;;;;;;0.80;99.90;;;;;;12962472;22;20014;-89
2021/03/02 01:10:37;;;;;;;;;;;0.50;99.90;;;;;;12962414;22;19969;-89
2021/03/02 01:15:47;;;;;;;;;;;0.50;99.90;;;;;;12965162;22;19964;-89
2021/03/02 01:20:49;;;;;;;;;;;0.60;99.90;;;;;;12962108;22;19931;-89
2021/03/02 01:25:50;;;;;;;;;;;0.50;99.90;;;;;;12961644;22;19927;-88
2021/03/02 01:30:52;;;;;;;;;;;;;;;;;;12937698;22;19973;-89
2021/03/02 01:35:53;;;;;;;;;;;0.50;99.90;;;;;;12961988;22;19919;-89
2021/03/02 01:40:56;;;;;;;;;;;0.50;99.90;;;;;;12961733;22;19957;-89
2021/03/02 01:46:09;;;;;;;;;;;0.30;99.90;;;;;;12965507;22;19929;-88
2021/03/02 01:51:11;;;;;;;;;;;0.40;99.90;;;;;;12937100;22;19981;-88
2021/03/02 01:56:13;;;;;;;;;;;0.40;99.90;;;;;;12938106;22;19919;-89
2021/03/02 02:01:14;;;;;;;;;;;0.30;99.90;;;;;;12974291;22;20291;-89
2021/03/02 02:06:19;;;;;;;;;;;;;;;;;;12965409;22;19920;-89
2021/03/02 02:11:26;;;;;;;;;;;0.50;99.90;;;;;;12962373;22;19998;-89
2021/03/02 02:16:34;;;;;;;;;;;0.40;99.90;;;;;;12962884;22;19923;-89
2021/03/02 02:21:54;;;;;;;;;;;0.40;99.90;;;;;;12961043;22;20248;-89
2021/03/02 02:26:57;;;;;;;;;;;0.80;99.90;;;;;;12987813;22;19990;-89
2021/03/02 02:31:59;;;;;;;;;;;0.00;99.90;;;;;;12960704;22;19923;-89
2021/03/02 02:37:01;;;;;;;;;;;0.20;99.90;;;;;;12988401;22;19919;-89
2021/03/02 02:42:03;;;;;;;;;;;0.20;99.90;;;;;;12961216;22;19970;-89
2021/03/02 02:47:04;;;;;;;;;;;0.30;99.90;;;;;;12935476;22;19942;-89
2021/03/02 02:52:06;;;;;;;;;;;0.20;99.90;;;;;;12960244;22;20255;-88
2021/03/02 02:57:08;;;;;;;;;;;0.50;99.90;;;;;;12960876;22;19977;-89
2021/03/02 03:02:13;;;;;;;;;;;0.40;99.90;;;;;;12986677;22;20350;-88
2021/03/02 03:07:18;;;;;;;;;;;2.30;99.90;;;;;;12960473;22;19924;-88
2021/03/02 03:12:21;;;;;;;;;;;0.60;99.90;;;;;;12959644;22;19990;-88
2021/03/02 03:17:22;;;;;;;;;;;0.60;99.90;;;;;;12959556;22;19923;-88
2021/03/02 03:22:24;;;;;;;;;;;0.60;99.90;;;;;;12959490;22;19919;-88
2021/03/02 03:27:28;;;;;;;;;;;0.80;99.90;;;;;;12959345;22;19920;-88
2021/03/02 03:32:32;;;;;;;;;;;2.90;99.90;;;;;;12959439;22;20119;-88
2021/03/02 03:37:33;;;;;;;;;;;1.50;99.90;;;;;;12959428;22;19939;-88
2021/03/02 03:42:34;;;;;;;;;;;0.90;99.90;;;;;;12986828;22;19958;-88
2021/03/02 03:47:38;;;;;;;;;;;1.00;99.90;;;;;;12959544;22;19919;-88
2021/03/02 03:52:42;;;;;;;;;;;1.20;99.90;;;;;;12959048;22;19920;-89
2021/03/02 03:57:44;;;;;;;;;;;1.70;99.90;;;;;;12959407;22;19994;-89
2021/03/02 04:02:47;;;;;;;;;;;1.20;99.90;;;;;;12934373;22;20003;-89
2021/03/02 04:07:49;;;;;;;;;;;1.10;99.90;;;;;;12959448;22;20328;-89
2021/03/02 04:12:50;;;;;;;;;;;0.90;99.90;;;;;;12960308;22;19994;-89
2021/03/02 04:18:14;;;;;;;;;;;1.70;99.90;;;;;;12942374;22;19923;-89
2021/03/02 04:23:15;;;;;;;;;;;0.90;99.90;;;;;;12959666;22;19986;-89
2021/03/02 04:28:16;;;;;;;;;;;0.70;99.90;;;;;;12963944;22;19938;-89
2021/03/02 04:33:18;;;;;;;;;;;0.70;99.90;;;;;;12962828;22;20315;-89
2021/03/02 04:38:19;;;;;;;;;;;2.00;99.90;;;;;;12990597;22;19954;-88
2021/03/02 04:43:20;;;;;;;;;;;0.00;99.90;;;;;;12962539;22;20240;-89
2021/03/02 04:48:24;;;;;;;;;;;0.70;99.90;;;;;;12964057;22;19919;-89
2021/03/02 04:53:28;;;;;;;;;;;0.90;99.90;;;;;;12962343;22;19930;-89
2021/03/02 04:58:29;;;;;;;;;;;0.70;99.90;;;;;;12962409;22;19919;-89
2021/03/02 05:03:31;;;;;;;;;;;0.60;99.90;;;;;;12935033;22;20244;-87
2021/03/02 05:08:32;;;;;;;;;;;0.60;99.90;;;;;;12961665;22;19990;-86
2021/03/02 05:13:33;;;;;;;;;;;0.60;99.90;;;;;;12937697;22;19925;-86
2021/03/02 05:18:44;;;;;;;;;;;0.60;99.90;;;;;;12941148;22;19981;-86
2021/03/02 05:23:45;;;;;;;;;;;0.50;99.90;;;;;;12961942;22;20400;-86
2021/03/02 05:28:50;;;;;;;;;;;0.50;99.90;;;;;;12936421;22;19920;-86
2021/03/02 05:33:53;;;;;;;;;;;0.50;99.90;;;;;;12963068;22;19993;-86
2021/03/02 05:38:59;;;;;;;;;;;0.50;99.90;;;;;;12962610;22;19943;-86
2021/03/02 05:44:00;;;;;;;;;;;0.70;99.90;;;;;;12988478;22;20329;-86
2021/03/02 05:49:09;;;;;;;;;;;0.80;99.90;;;;;;12963417;22;19923;-86
2021/03/02 05:54:11;;;;;;;;;;;0.70;99.90;;;;;;12960659;22;20299;-86
2021/03/02 05:59:12;;;;;;;;;;;0.70;99.90;;;;;;12988261;22;20461;-86
2021/03/02 06:04:16;;;;;;;;;;;0.60;99.90;;;;;;12961019;22;20299;-87
2021/03/02 06:09:18;;;;;;;;;;;1.20;99.90;;;;;;12962103;22;19977;-86
2021/03/02 06:14:23;;;;;;;;;;;0.50;99.90;;;;;;12936009;22;19931;-87
2021/03/02 06:19:37;;;;;;;;;;;0.50;99.90;;;;;;12961532;22;20232;-87
2021/03/02 06:24:39;;;;;;;;;;;0.40;99.90;;;;;;12961687;22;19943;-87
2021/03/02 06:29:41;;;;;;;;;;;0.70;99.90;;;;;;12936258;22;19947;-87
2021/03/02 06:34:49;;;;;;;;;;;0.70;99.90;;;;;;12987491;22;19927;-87
2021/03/02 06:39:51;;;;;;;;;;;0.60;99.90;;;;;;12959835;22;19919;-87
2021/03/02 06:44:53;;;;;;;;;;;1.60;99.90;;;;;;12961221;22;19919;-87
2021/03/02 06:49:54;;;;;;;;;;;2.70;99.90;;;;;;12988065;22;19923;-87
2021/03/02 06:54:56;;;;;;;;;;;1.30;99.90;;;;;;12959892;22;20239;-87
2021/03/02 06:59:58;;;;;;;;;;;1.30;99.90;;;;;;12961240;22;19961;-87
2021/03/02 07:05:10;;;;;;;;;;;2.40;99.90;;;;;;12959291;22;19924;-87
2021/03/02 07:10:12;;;;;;;;;;;3.50;99.90;;;;;;12986075;22;19920;-87
2021/03/02 07:15:17;;;;;;;;;;;3.90;99.90;;;;;;12987171;22;19995;-87
2021/03/02 07:20:23;;;;;;;;;;;3.90;99.90;;;;;;12959041;22;20001;-87
2021/03/02 07:25:24;;;;;;;;;;;4.20;99.90;;;;;;12959279;22;19919;-88
2021/03/02 07:30:29;;;;;;;;;;;4.90;99.90;;;;;;12936988;22;19947;-89
2021/03/02 07:35:30;;;;;;;;;;;;;;;;;;12961541;22;19983;-89
2021/03/02 07:40:32;;;;;;;;;;;;;;;;;;12958554;22;19969;-89
2021/03/02 07:45:34;;;;;;;;;;;;;;;;;;12960355;22;19927;-88
2021/03/02 07:50:35;;;;;;;;;;;5.30;99.90;;;;;;12958380;22;19933;-88
2021/03/02 07:55:36;;;;;;;;;;;7.10;99.90;;;;;;12932473;22;19920;-88
2021/03/02 08:00:38;;;;;;;;;;;5.90;99.90;;;;;;12933169;22;19973;-87
2021/03/02 08:05:40;;;;;;;;;;;6.30;99.90;;;;;;12933528;22;19923;-87
2021/03/02 08:10:42;;;;;;;;;;;7.00;99.90;;;;;;12933722;22;19965;-87
2021/03/02 08:15:44;;;;;;;;;;;8.50;99.90;;;;;;12958890;22;19919;-87
2021/03/02 08:21:11;;;;;;;;;;;6.90;99.90;;;;;;12960683;22;19919;-87
2021/03/02 08:26:24;;;;;;;;;;;7.50;99.90;;;;;;12958267;22;20350;-87
2021/03/02 08:31:25;;;;;;;;;;;7.70;99.90;;;;;;12957370;22;19951;-87
2021/03/02 08:36:27;;;;;;;;;;;8.30;99.90;;;;;;12932931;22;19919;-86
2021/03/02 08:41:32;;;;;;;;;;;9.00;99.90;;;;;;12957385;22;19955;-86
2021/03/02 08:46:35;;;;;;;;;;;8.20;99.90;;;;;;12985507;22;19950;-87
2021/03/02 08:51:37;;;;;;;;;;;8.70;99.90;;;;;;12958378;22;19920;-87
2021/03/02 08:56:38;;;;;;;;;;;11.90;99.90;;;;;;12985055;22;19986;-87
2021/03/02 09:01:40;;;;;;;;;;;14.30;99.90;;;;;;12957873;22;19924;-87
2021/03/02 09:06:47;;;;;;;;;;;15.00;96.20;;;;;;12957096;22;19977;-87
2021/03/02 09:11:53;;;;;;;;;;;12.20;99.90;;;;;;12957155;22;20315;-87
2021/03/02 09:16:58;;;;;;;;;;;10.20;99.90;;;;;;12987386;22;19942;-87
2021/03/02 09:22:01;;;;;;;;;;;11.40;99.90;;;;;;12961394;22;19997;-87
2021/03/02 09:27:17;;;;;;;;;;;10.80;99.90;;;;;;12963515;22;19962;-86
2021/03/02 09:32:26;;;;;;;;;;;10.40;99.90;;;;;;12960479;22;19958;-87
2021/03/02 09:37:28;;;;;;;;;;;10.80;99.90;;;;;;12961093;22;19919;-84
2021/03/02 09:42:30;;;;;;;;;;;11.50;99.90;;;;;;12960364;22;20344;-85
2021/03/02 09:47:33;;;;;;;;;;;11.80;99.90;;;;;;12961583;22;19951;-85
2021/03/02 09:52:36;;;;;;;;;;;12.70;99.90;;;;;;12960651;22;20405;-85
2021/03/02 09:57:53;;;;;;;;;;;13.00;99.90;;;;;;12988246;22;19969;-85
2021/03/02 10:02:55;;;;;;;;;;;12.70;99.90;;;;;;12986554;22;19926;-84
2021/03/02 10:07:58;;;;;;;;;;;12.80;99.90;;;;;;12960929;22;19969;-84
2021/03/02 10:13:03;;;;;;;;;;;13.50;99.90;;;;;;12938688;22;20313;-86
2021/03/02 10:18:23;;;;;;;;;;;14.40;99.90;;;;;;12962945;22;19942;-85
2021/03/02 10:23:24;;;;;;;;;;;14.20;99.90;;;;;;12987719;22;19937;-85
2021/03/02 10:28:30;;;;;;;;;;;14.80;95.60;;;;;;12959506;22;20308;-85
2021/03/02 10:33:31;;;;;;;;;;;14.90;93.40;;;;;;12961257;22;19990;-85
2021/03/02 10:38:33;;;;;;;;;;;15.10;93.50;;;;;;12959644;22;19990;-84
2021/03/02 10:43:35;;;;;;;;;;;14.80;91.60;;;;;;12959539;22;19954;-85
2021/03/02 10:48:37;;;;;;;;;;;14.70;94.80;;;;;;12961187;22;19981;-85
2021/03/02 10:53:39;;;;;;;;;;;14.90;92.20;;;;;;12962305;22;20410;-84
2021/03/02 10:58:44;;;;;;;;;;;15.10;92.10;;;;;;12937022;22;20336;-85
2021/03/02 11:03:46;;;;;;;;;;;14.60;90.00;;;;;;12985550;22;19997;-87
2021/03/02 11:08:48;;;;;;;;;;;14.50;88.60;;;;;;12957886;22;19994;-87
2021/03/02 11:13:53;;;;;;;;;;;14.70;85.10;;;;;;12986206;22;19946;-87
2021/03/02 11:18:54;;;;;;;;;;;15.20;88.10;;;;;;12958802;22;19927;-87
2021/03/02 11:23:56;;;;;;;;;;;15.70;85.30;;;;;;12959364;22;19927;-87
2021/03/02 11:28:57;;;;;;;;;;;15.70;84.30;;;;;;12933653;22;19953;-87
2021/03/02 11:33:59;;;;;;;;;;;14.80;81.80;;;;;;12935384;22;19923;-89
2021/03/02 11:39:04;;;;;;;;;;;14.50;82.10;;;;;;12989593;22;19998;-89
2021/03/02 11:44:05;;;;;;;;;;;14.80;83.80;;;;;;12959335;22;19961;-90
2021/03/02 11:49:06;;;;;;;;;;;15.20;85.40;;;;;;12933321;22;19986;-90
2021/03/02 11:54:08;;;;;;;;;;;14.80;80.20;;;;;;12960670;22;19998;-90
2021/03/02 11:59:09;;;;;;;;;;;15.00;79.30;;;;;;12934610;22;19942;-90
2021/03/02 12:04:11;;;;;;;;;;;14.70;82.20;;;;;;12933214;22;19990;-90
2021/03/02 12:09:13;;;;;;;;;;;14.70;80.30;;;;;;12958049;22;20359;-89
2021/03/02 12:14:17;;;;;;;;;;;14.40;81.80;;;;;;12933062;22;19942;-90
2021/03/02 12:19:19;;;;;;;;;;;14.40;81.60;;;;;;12959881;22;19954;-90
2021/03/02 12:24:20;;;;;;;;;;;14.10;82.00;;;;;;12931390;22;19967;-90
2021/03/02 12:29:21;;;;;;;;;;;14.70;78.60;;;;;;12930393;22;19930;-89
2021/03/02 12:34:23;;;;;;;;;;;14.60;78.40;;;;;;12928269;22;19926;-90
2021/03/02 12:39:24;;;;;;;;;;;14.70;79.40;;;;;;12958854;22;19923;-90
2021/03/02 12:44:26;;;;;;;;;;;14.50;76.60;;;;;;12933245;22;20306;-90
2021/03/02 12:49:27;;;;;;;;;;;14.60;77.60;;;;;;12984271;22;19943;-90
2021/03/02 12:54:28;;;;;;;;;;;14.30;78.70;;;;;;12933334;22;19945;-90
2021/03/02 12:59:32;;;;;;;;;;;14.60;78.30;;;;;;12928654;22;19929;-90
2021/03/02 13:04:34;;;;;;;;;;;14.60;76.90;;;;;;12927898;22;19954;-90
2021/03/02 13:09:35;;;;;;;;;;;14.60;77.70;;;;;;12952110;22;20481;-90
2021/03/02 13:14:40;;;;;;;;;;;14.70;77.80;;;;;;12954032;22;19930;-90
2021/03/02 13:19:43;;;;;;;;;;;14.60;79.40;;;;;;12954176;22;19959;-91
2021/03/02 13:24:44;;;;;;;;;;;14.80;79.60;;;;;;12927877;22;20379;-90
2021/03/02 13:29:50;;;;;;;;;;;15.00;78.70;;;;;;12980447;22;19950;-90
2021/03/02 13:34:53;;;;;;;;;;;15.20;78.20;;;;;;12952409;22;19930;-90
2021/03/02 13:40:01;;;;;;;;;;;15.30;81.20;;;;;;12953005;22;19970;-90
2021/03/02 13:45:03;;;;;;;;;;;15.20;81.90;;;;;;12953636;22;19990;-90
2021/03/02 13:50:04;;;;;;;;;;;15.20;79.20;;;;;;12928366;22;19990;-87
2021/03/02 13:55:09;;;;;;;;;;;15.60;79.60;;;;;;12953743;22;19929;-87
2021/03/02 14:00:14;;;;;;;;;;;15.60;82.50;;;;;;12928435;22;19998;-87
2021/03/02 14:05:24;;;;;;;;;;;15.30;78.90;;;;;;12953168;22;19950;-89
2021/03/02 14:10:26;;;;;;;;;;;15.30;76.20;;;;;;12954417;22;20332;-88
2021/03/02 14:15:31;;;;;;;;;;;15.30;76.30;;;;;;12953365;22;20002;-89
2021/03/02 14:20:32;;;;;;;;;;;15.40;76.20;;;;;;12952751;22;19923;-88
2021/03/02 14:25:34;;;;;;;;;;;15.20;76.70;;;;;;12927377;22;20364;-89
2021/03/02 14:30:35;;;;;;;;;;;17.60;77.90;;;;;;12978581;22;20013;-89
2021/03/02 14:35:39;;;;;;;;;;;15.20;76.80;;;;;;12952981;22;20026;-89
2021/03/02 14:40:44;;;;;;;;;;;15.00;77.50;;;;;;12952963;22;19924;-89
2021/03/02 14:45:46;;;;;;;;;;;15.00;77.10;;;;;;12950533;22;20656;-89
2021/03/02 14:50:54;;;;;;;;;;;14.90;74.50;;;;;;12978572;22;19923;-89
2021/03/02 14:56:01;;;;;;;;;;;14.80;76.90;;;;;;12928074;22;19923;-89
2021/03/02 15:01:04;;;;;;;;;;;14.50;81.30;;;;;;12951530;22;19998;-88
2021/03/02 15:06:06;;;;;;;;;;;14.80;76.00;;;;;;12950725;22;19927;-88
2021/03/02 15:11:07;;;;;;;;;;;16.90;76.70;;;;;;12952190;22;19923;-89
2021/03/02 15:16:08;;;;;;;;;;;14.80;75.30;;;;;;12952307;22;19951;-89
2021/03/02 15:21:10;;;;;;;;;;;14.30;80.70;;;;;;12951303;22;19923;-89
2021/03/02 15:26:12;;;;;;;;;;;14.20;79.30;;;;;;12950446;22;19934;-89
2021/03/02 15:31:14;;;;;;;;;;;14.00;82.50;;;;;;12978510;22;19929;-89
2021/03/02 15:36:16;;;;;;;;;;;14.00;83.20;;;;;;12951064;22;20409;-89
2021/03/02 15:41:21;;;;;;;;;;;14.00;82.80;;;;;;12950606;22;19923;-89
2021/03/02 15:46:22;;;;;;;;;;;13.80;86.90;;;;;;12951270;22;19923;-89
2021/03/02 15:51:31;;;;;;;;;;;13.70;85.00;;;;;;12951921;22;19919;-89
2021/03/02 15:56:34;;;;;;;;;;;13.50;87.50;;;;;;12949470;22;19998;-89
2021/03/02 16:01:37;;;;;;;;;;;13.20;90.40;;;;;;12950234;22;19930;-88
2021/03/02 16:06:41;;;;;;;;;;;13.00;92.70;;;;;;12977030;22;19969;-88
2021/03/02 16:11:48;;;;;;;;;;;12.40;95.70;;;;;;12949698;22;20404;-88
2021/03/02 16:16:50;;;;;;;;;;;12.20;97.20;;;;;;12950958;22;19954;-88
2021/03/02 16:21:59;;;;;;;;;;;11.90;99.90;;;;;;12952035;22;19923;-88
2021/03/02 16:27:01;;;;;;;;;;;11.50;99.90;;;;;;12953975;22;20345;-88
2021/03/02 16:32:02;;;;;;;;;;;11.10;99.90;;;;;;12955102;22;19923;-89
2021/03/02 16:37:04;;;;;;;;;;;10.80;99.90;;;;;;12930740;22;19951;-89
2021/03/02 16:42:07;;;;;;;;;;;10.70;99.90;;;;;;12954930;22;20256;-88
2021/03/02 16:47:12;;;;;;;;;;;10.50;99.90;;;;;;12955571;22;19920;-88
2021/03/02 16:52:14;;;;;;;;;;;10.30;99.90;;;;;;12955238;22;19985;-88
2021/03/02 16:57:30;;;;;;;;;;;10.20;99.90;;;;;;12954707;22;19923;-88
2021/03/02 21:12:44;;;;;;;;;;;5.50;99.90;;;;;;12984463;22;19928;-88
2021/03/02 21:17:46;;;;;;;;;;;5.60;99.90;;;;;;12706312;23;19988;-89
2021/03/02 21:22:48;;;;;;;;;;;5.40;99.90;;;;;;12705811;23;19920;-89
2021/03/02 21:27:49;;;;;;;;;;;5.30;99.90;;;;;;12705781;23;19924;-89
2021/03/02 21:32:58;;;;;;;;;;;5.30;99.90;;;;;;12683821;23;19951;-89
2021/03/02 21:37:59;;;;;;;;;;;5.20;99.90;;;;;;12705820;23;19920;-88
2021/03/02 21:43:05;;;;;;;;;;;5.30;99.90;;;;;;12706322;23;19920;-88
2021/03/02 21:48:11;;;;;;;;;;;5.30;99.90;;;;;;12705184;23;20329;-88
2021/03/02 21:53:14;;;;;;;;;;;5.50;99.90;;;;;;12705001;23;19952;-89
2021/03/02 21:58:19;;;;;;;;;;;5.60;99.90;;;;;;12730608;23;20290;-89
2021/03/02 22:03:31;;;;;;;;;;;5.40;99.90;;;;;;12706414;23;19924;-89
2021/03/02 22:08:36;;;;;;;;;;;6.80;99.90;;;;;;12731191;23;19984;-88
2021/03/02 22:13:37;;;;;;;;;;;5.90;99.90;;;;;;12681829;23;19934;-89
2021/03/02 22:18:39;;;;;;;;;;;5.90;99.90;;;;;;12706602;23;19921;-89
2021/03/02 22:23:40;;;;;;;;;;;6.00;99.90;;;;;;12706119;23;19924;-89
2021/03/02 22:28:41;;;;;;;;;;;6.60;99.90;;;;;;12705489;23;19963;-89
2021/03/02 22:33:43;;;;;;;;;;;6.00;99.90;;;;;;12681846;23;19921;-89
2021/03/02 22:38:45;;;;;;;;;;;6.90;99.90;;;;;;12705642;23;20249;-89
2021/03/02 22:43:46;;;;;;;;;;;6.90;99.90;;;;;;12681679;23;19948;-89
2021/03/02 22:48:48;;;;;;;;;;;5.90;99.90;;;;;;12706193;23;19963;-89
2021/03/02 22:53:49;;;;;;;;;;;6.10;99.90;;;;;;12706106;23;19959;-89
2021/03/02 22:58:54;;;;;;;;;;;6.00;99.90;;;;;;12682401;23;19925;-89
2021/03/02 23:03:55;;;;;;;;;;;5.60;99.90;;;;;;12680809;23;19991;-89
2021/03/02 23:08:58;;;;;;;;;;;6.00;99.90;;;;;;12706095;23;19921;-89
2021/03/02 23:14:00;;;;;;;;;;;7.10;99.90;;;;;;12680557;23;19921;-89
2021/03/02 23:19:04;;;;;;;;;;;5.80;99.90;;;;;;12730381;23;20401;-85
2021/03/02 23:24:05;;;;;;;;;;;7.30;99.90;;;;;;12730097;23;20305;-86
2021/03/02 23:29:07;;;;;;;;;;;5.50;99.90;;;;;;12705364;23;19937;-86
2021/03/02 23:34:09;;;;;;;;;;;7.20;99.90;;;;;;12702068;23;19924;-86
2021/03/02 23:39:10;;;;;;;;;;;5.30;99.90;;;;;;12702116;23;19992;-85
2021/03/02 23:44:11;;;;;;;;;;;5.30;99.90;;;;;;12702673;23;19921;-86
2021/03/02 23:49:13;;;;;;;;;;;5.30;99.90;;;;;;12728364;23;19992;-86
2021/03/02 23:54:14;;;;;;;;;;;5.40;99.90;;;;;;12702324;23;19996;-86
2021/03/02 23:59:16;;;;;;;;;;;5.80;99.90;;;;;;12701450;23;19956;-86
